sensor_id;sensor_type;location;lat;lon;timestamp;temperature;humidity
53422;DHT22;39319;52.944;5.928;2023-05-29T00:00:20;13.80;85.20
53422;DHT22;39319;52.944;5.928;2023-05-29T00:02:47;13.70;85.00
53422;DHT22;39319;52.944;5.928;2023-05-29T00:05:13;13.80;85.10
53422;DHT22;39319;52.944;5.928;2023-05-29T00:07:40;13.70;85.10
53422;DHT22;39319;52.944;5.928;2023-05-29T00:10:07;13.80;85.30
53422;DHT22;39319;52.944;5.928;2023-05-29T00:12:33;13.70;85.30
53422;DHT22;39319;52.944;5.928;2023-05-29T00:14:59;13.70;85.20
53422;DHT22;39319;52.944;5.928;2023-05-29T00:17:25;13.60;85.20
53422;DHT22;39319;52.944;5.928;2023-05-29T00:19:51;13.60;85.50
53422;DHT22;39319;52.944;5.928;2023-05-29T00:22:17;13.60;85.50
53422;DHT22;39319;52.944;5.928;2023-05-29T00:24:42;13.60;85.70
53422;DHT22;39319;52.944;5.928;2023-05-29T00:27:09;13.60;85.60
53422;DHT22;39319;52.944;5.928;2023-05-29T00:29:38;13.50;86.40
53422;DHT22;39319;52.944;5.928;2023-05-29T00:32:07;13.50;86.00
53422;DHT22;39319;52.944;5.928;2023-05-29T00:34:33;13.60;86.00
53422;DHT22;39319;52.944;5.928;2023-05-29T00:36:58;13.50;86.10
53422;DHT22;39319;52.944;5.928;2023-05-29T00:39:24;13.50;86.40
53422;DHT22;39319;52.944;5.928;2023-05-29T00:41:50;13.50;86.30
53422;DHT22;39319;52.944;5.928;2023-05-29T00:44:20;13.40;86.40
53422;DHT22;39319;52.944;5.928;2023-05-29T00:46:47;13.30;86.30
53422;DHT22;39319;52.944;5.928;2023-05-29T00:49:14;13.20;86.60
53422;DHT22;39319;52.944;5.928;2023-05-29T00:51:42;13.30;86.80
53422;DHT22;39319;52.944;5.928;2023-05-29T00:54:14;13.30;86.90
53422;DHT22;39319;52.944;5.928;2023-05-29T00:56:42;13.30;87.20
53422;DHT22;39319;52.944;5.928;2023-05-29T00:59:10;13.20;86.80
53422;DHT22;39319;52.944;5.928;2023-05-29T01:01:36;13.20;86.50
53422;DHT22;39319;52.944;5.928;2023-05-29T01:04:03;13.20;86.90
53422;DHT22;39319;52.944;5.928;2023-05-29T01:06:32;13.20;86.80
53422;DHT22;39319;52.944;5.928;2023-05-29T01:08:58;13.20;87.10
53422;DHT22;39319;52.944;5.928;2023-05-29T01:14:17;13.20;87.00
53422;DHT22;39319;52.944;5.928;2023-05-29T01:17:32;13.20;86.90
53422;DHT22;39319;52.944;5.928;2023-05-29T01:25:50;13.10;87.20
53422;DHT22;39319;52.944;5.928;2023-05-29T01:28:24;13.10;87.10
53422;DHT22;39319;52.944;5.928;2023-05-29T01:30:53;13.10;87.10
53422;DHT22;39319;52.944;5.928;2023-05-29T01:33:19;13.00;87.20
53422;DHT22;39319;52.944;5.928;2023-05-29T01:35:45;13.00;87.20
53422;DHT22;39319;52.944;5.928;2023-05-29T01:38:11;12.90;87.30
53422;DHT22;39319;52.944;5.928;2023-05-29T01:40:37;12.90;87.50
53422;DHT22;39319;52.944;5.928;2023-05-29T01:43:03;12.90;87.50
53422;DHT22;39319;52.944;5.928;2023-05-29T01:45:29;13.00;87.40
53422;DHT22;39319;52.944;5.928;2023-05-29T01:47:56;12.90;87.30
53422;DHT22;39319;52.944;5.928;2023-05-29T01:50:23;12.90;87.60
53422;DHT22;39319;52.944;5.928;2023-05-29T01:52:49;12.90;87.40
53422;DHT22;39319;52.944;5.928;2023-05-29T01:55:15;12.80;87.60
53422;DHT22;39319;52.944;5.928;2023-05-29T01:57:41;12.70;87.60
53422;DHT22;39319;52.944;5.928;2023-05-29T02:00:08;12.70;87.90
53422;DHT22;39319;52.944;5.928;2023-05-29T02:02:38;12.70;88.20
53422;DHT22;39319;52.944;5.928;2023-05-29T02:05:05;12.60;88.20
53422;DHT22;39319;52.944;5.928;2023-05-29T02:07:31;12.60;88.30
53422;DHT22;39319;52.944;5.928;2023-05-29T02:09:56;12.60;88.60
53422;DHT22;39319;52.944;5.928;2023-05-29T02:12:22;12.50;88.50
53422;DHT22;39319;52.944;5.928;2023-05-29T02:14:48;12.50;88.60
53422;DHT22;39319;52.944;5.928;2023-05-29T02:17:14;12.40;88.40
53422;DHT22;39319;52.944;5.928;2023-05-29T02:19:40;12.40;88.50
53422;DHT22;39319;52.944;5.928;2023-05-29T02:22:07;12.40;88.60
53422;DHT22;39319;52.944;5.928;2023-05-29T02:24:33;12.40;88.60
53422;DHT22;39319;52.944;5.928;2023-05-29T02:26:58;12.30;88.70
53422;DHT22;39319;52.944;5.928;2023-05-29T02:29:24;14.50;90.10
53422;DHT22;39319;52.944;5.928;2023-05-29T02:31:50;12.30;88.80
53422;DHT22;39319;52.944;5.928;2023-05-29T02:34:16;12.40;88.90
53422;DHT22;39319;52.944;5.928;2023-05-29T02:36:41;12.30;88.90
53422;DHT22;39319;52.944;5.928;2023-05-29T02:39:07;12.30;88.70
53422;DHT22;39319;52.944;5.928;2023-05-29T02:41:33;12.30;88.70
53422;DHT22;39319;52.944;5.928;2023-05-29T02:43:59;12.40;88.70
53422;DHT22;39319;52.944;5.928;2023-05-29T02:46:25;12.30;88.60
53422;DHT22;39319;52.944;5.928;2023-05-29T02:48:50;12.20;89.00
53422;DHT22;39319;52.944;5.928;2023-05-29T02:51:16;12.30;88.60
53422;DHT22;39319;52.944;5.928;2023-05-29T02:53:42;12.20;89.10
53422;DHT22;39319;52.944;5.928;2023-05-29T02:56:08;12.20;89.00
53422;DHT22;39319;52.944;5.928;2023-05-29T02:58:34;12.20;89.10
53422;DHT22;39319;52.944;5.928;2023-05-29T03:01:01;12.10;89.10
53422;DHT22;39319;52.944;5.928;2023-05-29T03:03:29;12.10;89.20
53422;DHT22;39319;52.944;5.928;2023-05-29T03:05:55;12.10;89.10
53422;DHT22;39319;52.944;5.928;2023-05-29T03:08:21;12.00;89.20
53422;DHT22;39319;52.944;5.928;2023-05-29T03:10:47;12.00;89.10
53422;DHT22;39319;52.944;5.928;2023-05-29T03:13:13;12.00;89.00
53422;DHT22;39319;52.944;5.928;2023-05-29T03:15:39;12.00;89.40
53422;DHT22;39319;52.944;5.928;2023-05-29T03:18:04;11.90;89.40
53422;DHT22;39319;52.944;5.928;2023-05-29T03:20:30;11.90;89.30
53422;DHT22;39319;52.944;5.928;2023-05-29T03:22:56;11.90;89.50
53422;DHT22;39319;52.944;5.928;2023-05-29T03:25:22;11.90;89.60
53422;DHT22;39319;52.944;5.928;2023-05-29T03:27:48;12.00;89.50
53422;DHT22;39319;52.944;5.928;2023-05-29T03:30:14;12.00;89.50
53422;DHT22;39319;52.944;5.928;2023-05-29T03:32:39;12.00;89.60
53422;DHT22;39319;52.944;5.928;2023-05-29T03:35:06;11.90;89.20
53422;DHT22;39319;52.944;5.928;2023-05-29T03:37:32;12.00;89.60
53422;DHT22;39319;52.944;5.928;2023-05-29T03:39:57;11.90;89.50
53422;DHT22;39319;52.944;5.928;2023-05-29T03:42:23;12.00;89.40
53422;DHT22;39319;52.944;5.928;2023-05-29T03:44:49;11.90;89.90
53422;DHT22;39319;52.944;5.928;2023-05-29T03:47:14;11.90;89.70
53422;DHT22;39319;52.944;5.928;2023-05-29T03:49:40;11.80;89.60
53422;DHT22;39319;52.944;5.928;2023-05-29T03:52:06;11.80;89.70
53422;DHT22;39319;52.944;5.928;2023-05-29T03:54:32;11.80;89.70
53422;DHT22;39319;52.944;5.928;2023-05-29T03:56:58;11.80;89.90
53422;DHT22;39319;52.944;5.928;2023-05-29T03:59:24;11.80;89.70
53422;DHT22;39319;52.944;5.928;2023-05-29T04:01:50;11.90;90.00
53422;DHT22;39319;52.944;5.928;2023-05-29T04:04:15;11.90;90.00
53422;DHT22;39319;52.944;5.928;2023-05-29T04:06:41;12.00;90.00
53422;DHT22;39319;52.944;5.928;2023-05-29T04:09:07;12.00;89.70
53422;DHT22;39319;52.944;5.928;2023-05-29T04:11:34;12.00;89.60
53422;DHT22;39319;52.944;5.928;2023-05-29T04:14:01;12.10;89.60
53422;DHT22;39319;52.944;5.928;2023-05-29T04:16:27;12.10;89.40
53422;DHT22;39319;52.944;5.928;2023-05-29T04:18:54;12.20;89.30
53422;DHT22;39319;52.944;5.928;2023-05-29T04:21:20;12.20;89.10
53422;DHT22;39319;52.944;5.928;2023-05-29T04:23:46;12.10;89.50
53422;DHT22;39319;52.944;5.928;2023-05-29T04:26:12;12.10;89.50
53422;DHT22;39319;52.944;5.928;2023-05-29T04:28:38;12.20;89.30
53422;DHT22;39319;52.944;5.928;2023-05-29T04:31:04;12.20;88.80
53422;DHT22;39319;52.944;5.928;2023-05-29T04:33:31;12.30;88.70
53422;DHT22;39319;52.944;5.928;2023-05-29T04:35:58;12.30;88.10
53422;DHT22;39319;52.944;5.928;2023-05-29T04:38:26;12.40;88.00
53422;DHT22;39319;52.944;5.928;2023-05-29T04:40:52;12.40;88.50
53422;DHT22;39319;52.944;5.928;2023-05-29T04:43:23;12.40;88.50
53422;DHT22;39319;52.944;5.928;2023-05-29T04:45:54;12.40;88.40
53422;DHT22;39319;52.944;5.928;2023-05-29T04:48:20;12.50;88.20
53422;DHT22;39319;52.944;5.928;2023-05-29T04:50:46;12.60;88.50
53422;DHT22;39319;52.944;5.928;2023-05-29T04:53:14;12.60;88.70
53422;DHT22;39319;52.944;5.928;2023-05-29T04:55:40;12.70;88.50
53422;DHT22;39319;52.944;5.928;2023-05-29T04:58:05;12.70;88.80
53422;DHT22;39319;52.944;5.928;2023-05-29T05:00:31;12.70;88.50
53422;DHT22;39319;52.944;5.928;2023-05-29T05:02:57;12.90;88.80
53422;DHT22;39319;52.944;5.928;2023-05-29T05:05:23;12.90;88.40
53422;DHT22;39319;52.944;5.928;2023-05-29T05:07:51;12.90;88.40
53422;DHT22;39319;52.944;5.928;2023-05-29T05:10:17;13.00;88.60
53422;DHT22;39319;52.944;5.928;2023-05-29T05:12:42;13.10;88.60
53422;DHT22;39319;52.944;5.928;2023-05-29T05:15:09;13.10;89.00
53422;DHT22;39319;52.944;5.928;2023-05-29T05:17:35;13.20;88.30
53422;DHT22;39319;52.944;5.928;2023-05-29T05:20:00;13.20;87.80
53422;DHT22;39319;52.944;5.928;2023-05-29T05:22:26;13.30;88.50
53422;DHT22;39319;52.944;5.928;2023-05-29T05:24:52;13.30;88.20
53422;DHT22;39319;52.944;5.928;2023-05-29T05:27:19;13.40;87.40
53422;DHT22;39319;52.944;5.928;2023-05-29T05:29:45;13.40;87.00
53422;DHT22;39319;52.944;5.928;2023-05-29T05:32:11;13.40;86.80
53422;DHT22;39319;52.944;5.928;2023-05-29T05:34:37;13.40;86.90
53422;DHT22;39319;52.944;5.928;2023-05-29T05:37:03;13.40;86.70
53422;DHT22;39319;52.944;5.928;2023-05-29T05:39:28;13.50;86.90
53422;DHT22;39319;52.944;5.928;2023-05-29T05:41:54;13.50;86.90
53422;DHT22;39319;52.944;5.928;2023-05-29T05:44:20;13.50;86.80
53422;DHT22;39319;52.944;5.928;2023-05-29T05:46:46;13.50;86.40
53422;DHT22;39319;52.944;5.928;2023-05-29T05:49:12;13.60;86.20
53422;DHT22;39319;52.944;5.928;2023-05-29T05:51:38;13.60;86.00
53422;DHT22;39319;52.944;5.928;2023-05-29T05:54:04;13.70;86.00
53422;DHT22;39319;52.944;5.928;2023-05-29T05:56:30;13.70;85.50
53422;DHT22;39319;52.944;5.928;2023-05-29T05:58:55;13.70;86.10
53422;DHT22;39319;52.944;5.928;2023-05-29T06:01:21;13.80;86.10
53422;DHT22;39319;52.944;5.928;2023-05-29T06:03:48;13.80;85.30
53422;DHT22;39319;52.944;5.928;2023-05-29T06:06:13;13.90;85.20
53422;DHT22;39319;52.944;5.928;2023-05-29T06:08:39;13.80;84.20
53422;DHT22;39319;52.944;5.928;2023-05-29T06:11:06;13.90;85.00
53422;DHT22;39319;52.944;5.928;2023-05-29T06:13:32;14.00;84.10
53422;DHT22;39319;52.944;5.928;2023-05-29T06:15:58;13.90;83.20
53422;DHT22;39319;52.944;5.928;2023-05-29T06:18:23;14.00;83.40
53422;DHT22;39319;52.944;5.928;2023-05-29T06:20:49;14.00;83.60
53422;DHT22;39319;52.944;5.928;2023-05-29T06:23:15;14.00;83.60
53422;DHT22;39319;52.944;5.928;2023-05-29T06:25:41;14.10;83.50
53422;DHT22;39319;52.944;5.928;2023-05-29T06:28:07;14.00;84.30
53422;DHT22;39319;52.944;5.928;2023-05-29T06:30:33;14.20;83.00
53422;DHT22;39319;52.944;5.928;2023-05-29T06:32:58;14.10;82.80
53422;DHT22;39319;52.944;5.928;2023-05-29T06:35:24;14.20;81.90
53422;DHT22;39319;52.944;5.928;2023-05-29T06:37:50;14.10;82.50
53422;DHT22;39319;52.944;5.928;2023-05-29T06:40:16;14.20;82.50
53422;DHT22;39319;52.944;5.928;2023-05-29T06:42:42;14.20;82.40
53422;DHT22;39319;52.944;5.928;2023-05-29T06:45:11;14.30;82.00
53422;DHT22;39319;52.944;5.928;2023-05-29T06:47:39;14.30;82.00
53422;DHT22;39319;52.944;5.928;2023-05-29T06:50:07;14.20;82.00
53422;DHT22;39319;52.944;5.928;2023-05-29T06:52:33;14.30;82.50
53422;DHT22;39319;52.944;5.928;2023-05-29T06:54:59;14.30;83.00
53422;DHT22;39319;52.944;5.928;2023-05-29T06:57:25;14.40;82.90
53422;DHT22;39319;52.944;5.928;2023-05-29T06:59:50;14.50;82.30
53422;DHT22;39319;52.944;5.928;2023-05-29T07:02:16;14.50;82.00
53422;DHT22;39319;52.944;5.928;2023-05-29T07:04:42;14.60;82.40
53422;DHT22;39319;52.944;5.928;2023-05-29T07:07:07;14.60;82.00
53422;DHT22;39319;52.944;5.928;2023-05-29T07:09:33;14.50;81.30
53422;DHT22;39319;52.944;5.928;2023-05-29T07:11:59;14.60;81.00
53422;DHT22;39319;52.944;5.928;2023-05-29T07:14:24;14.60;81.10
53422;DHT22;39319;52.944;5.928;2023-05-29T07:16:50;14.80;80.90
53422;DHT22;39319;52.944;5.928;2023-05-29T07:19:16;14.80;81.20
53422;DHT22;39319;52.944;5.928;2023-05-29T07:21:42;14.80;81.30
53422;DHT22;39319;52.944;5.928;2023-05-29T07:24:08;14.80;81.40
53422;DHT22;39319;52.944;5.928;2023-05-29T07:26:34;14.80;80.80
53422;DHT22;39319;52.944;5.928;2023-05-29T07:29:00;14.90;80.70
53422;DHT22;39319;52.944;5.928;2023-05-29T07:31:25;15.10;80.70
53422;DHT22;39319;52.944;5.928;2023-05-29T07:33:51;15.00;80.00
53422;DHT22;39319;52.944;5.928;2023-05-29T07:36:17;15.10;80.50
53422;DHT22;39319;52.944;5.928;2023-05-29T07:38:43;15.10;81.50
53422;DHT22;39319;52.944;5.928;2023-05-29T07:41:10;15.10;81.10
53422;DHT22;39319;52.944;5.928;2023-05-29T07:43:36;15.10;81.00
53422;DHT22;39319;52.944;5.928;2023-05-29T07:46:01;15.20;80.10
53422;DHT22;39319;52.944;5.928;2023-05-29T07:48:27;15.20;79.90
53422;DHT22;39319;52.944;5.928;2023-05-29T07:50:53;15.30;80.50
53422;DHT22;39319;52.944;5.928;2023-05-29T07:53:19;15.30;80.50
53422;DHT22;39319;52.944;5.928;2023-05-29T07:55:45;15.40;80.50
53422;DHT22;39319;52.944;5.928;2023-05-29T07:58:10;15.50;81.00
53422;DHT22;39319;52.944;5.928;2023-05-29T08:00:37;15.60;80.20
53422;DHT22;39319;52.944;5.928;2023-05-29T08:03:04;15.80;80.60
53422;DHT22;39319;52.944;5.928;2023-05-29T08:05:30;15.90;80.30
53422;DHT22;39319;52.944;5.928;2023-05-29T08:07:59;16.00;79.30
53422;DHT22;39319;52.944;5.928;2023-05-29T08:10:25;16.10;79.40
53422;DHT22;39319;52.944;5.928;2023-05-29T08:12:50;16.20;79.70
53422;DHT22;39319;52.944;5.928;2023-05-29T08:15:18;16.30;81.00
53422;DHT22;39319;52.944;5.928;2023-05-29T08:17:44;16.40;80.00
53422;DHT22;39319;52.944;5.928;2023-05-29T08:20:12;16.40;78.80
53422;DHT22;39319;52.944;5.928;2023-05-29T08:22:38;16.60;79.30
53422;DHT22;39319;52.944;5.928;2023-05-29T08:25:04;16.60;78.70
53422;DHT22;39319;52.944;5.928;2023-05-29T08:27:29;16.70;78.40
53422;DHT22;39319;52.944;5.928;2023-05-29T08:29:56;16.80;77.30
53422;DHT22;39319;52.944;5.928;2023-05-29T08:32:22;16.80;77.40
53422;DHT22;39319;52.944;5.928;2023-05-29T08:34:48;16.80;77.30
53422;DHT22;39319;52.944;5.928;2023-05-29T08:37:15;16.80;77.60
53422;DHT22;39319;52.944;5.928;2023-05-29T08:39:41;16.90;76.30
53422;DHT22;39319;52.944;5.928;2023-05-29T08:42:12;16.90;75.70
53422;DHT22;39319;52.944;5.928;2023-05-29T08:44:40;16.90;75.20
53422;DHT22;39319;52.944;5.928;2023-05-29T08:47:07;16.90;75.30
53422;DHT22;39319;52.944;5.928;2023-05-29T08:49:43;17.00;75.50
53422;DHT22;39319;52.944;5.928;2023-05-29T08:52:16;17.00;75.60
53422;DHT22;39319;52.944;5.928;2023-05-29T08:54:43;17.10;75.10
53422;DHT22;39319;52.944;5.928;2023-05-29T08:57:10;17.10;75.30
53422;DHT22;39319;52.944;5.928;2023-05-29T08:59:37;17.10;75.90
53422;DHT22;39319;52.944;5.928;2023-05-29T09:02:04;17.10;74.60
53422;DHT22;39319;52.944;5.928;2023-05-29T09:04:31;17.10;74.50
53422;DHT22;39319;52.944;5.928;2023-05-29T09:07:00;17.10;75.30
53422;DHT22;39319;52.944;5.928;2023-05-29T09:09:26;17.20;75.60
53422;DHT22;39319;52.944;5.928;2023-05-29T09:11:57;17.20;76.00
53422;DHT22;39319;52.944;5.928;2023-05-29T09:14:43;17.20;74.20
53422;DHT22;39319;52.944;5.928;2023-05-29T09:17:11;17.10;75.50
53422;DHT22;39319;52.944;5.928;2023-05-29T09:19:38;17.10;74.40
53422;DHT22;39319;52.944;5.928;2023-05-29T09:22:15;17.20;75.10
53422;DHT22;39319;52.944;5.928;2023-05-29T09:24:43;17.20;74.70
53422;DHT22;39319;52.944;5.928;2023-05-29T09:27:11;17.20;74.80
53422;DHT22;39319;52.944;5.928;2023-05-29T09:29:46;17.30;75.00
53422;DHT22;39319;52.944;5.928;2023-05-29T09:32:16;17.30;74.90
53422;DHT22;39319;52.944;5.928;2023-05-29T09:34:43;17.20;75.80
53422;DHT22;39319;52.944;5.928;2023-05-29T09:37:11;17.30;75.70
53422;DHT22;39319;52.944;5.928;2023-05-29T09:39:47;17.30;76.20
53422;DHT22;39319;52.944;5.928;2023-05-29T09:42:14;17.30;74.60
53422;DHT22;39319;52.944;5.928;2023-05-29T09:44:42;17.30;74.60
53422;DHT22;39319;52.944;5.928;2023-05-29T09:47:07;17.30;75.10
53422;DHT22;39319;52.944;5.928;2023-05-29T09:49:34;17.20;74.60
53422;DHT22;39319;52.944;5.928;2023-05-29T09:52:01;17.30;74.90
53422;DHT22;39319;52.944;5.928;2023-05-29T09:54:28;17.30;75.10
53422;DHT22;39319;52.944;5.928;2023-05-29T09:56:58;17.40;74.50
53422;DHT22;39319;52.944;5.928;2023-05-29T09:59:24;17.30;74.80
53422;DHT22;39319;52.944;5.928;2023-05-29T10:02:00;17.50;74.90
53422;DHT22;39319;52.944;5.928;2023-05-29T10:04:30;17.50;74.30
53422;DHT22;39319;52.944;5.928;2023-05-29T10:07:03;17.60;74.30
53422;DHT22;39319;52.944;5.928;2023-05-29T10:09:30;17.60;73.50
53422;DHT22;39319;52.944;5.928;2023-05-29T10:11:59;17.60;73.40
53422;DHT22;39319;52.944;5.928;2023-05-29T10:14:28;17.70;74.30
53422;DHT22;39319;52.944;5.928;2023-05-29T10:16:58;17.80;73.70
53422;DHT22;39319;52.944;5.928;2023-05-29T10:19:29;17.90;73.60
53422;DHT22;39319;52.944;5.928;2023-05-29T10:21:56;18.00;74.70
53422;DHT22;39319;52.944;5.928;2023-05-29T10:24:22;18.10;74.10
53422;DHT22;39319;52.944;5.928;2023-05-29T10:26:50;18.20;74.10
53422;DHT22;39319;52.944;5.928;2023-05-29T10:40:11;18.80;72.90
53422;DHT22;39319;52.944;5.928;2023-05-29T10:42:48;18.90;72.70
53422;DHT22;39319;52.944;5.928;2023-05-29T10:53:07;19.40;72.60
53422;DHT22;39319;52.944;5.928;2023-05-29T10:55:36;19.50;71.90
53422;DHT22;39319;52.944;5.928;2023-05-29T10:58:12;19.50;71.70
53422;DHT22;39319;52.944;5.928;2023-05-29T11:00:42;19.60;71.30
53422;DHT22;39319;52.944;5.928;2023-05-29T11:03:09;19.60;70.70
53422;DHT22;39319;52.944;5.928;2023-05-29T11:08:47;19.70;70.70
53422;DHT22;39319;52.944;5.928;2023-05-29T11:11:14;19.90;69.10
53422;DHT22;39319;52.944;5.928;2023-05-29T11:13:40;20.00;70.40
53422;DHT22;39319;52.944;5.928;2023-05-29T11:18:52;20.10;70.20
53422;DHT22;39319;52.944;5.928;2023-05-29T11:23:53;20.30;68.90
53422;DHT22;39319;52.944;5.928;2023-05-29T11:26:23;20.40;70.00
53422;DHT22;39319;52.944;5.928;2023-05-29T11:28:49;20.50;68.90
53422;DHT22;39319;52.944;5.928;2023-05-29T11:31:15;20.50;69.10
53422;DHT22;39319;52.944;5.928;2023-05-29T11:33:47;20.60;69.00
53422;DHT22;39319;52.944;5.928;2023-05-29T11:36:14;20.70;69.00
53422;DHT22;39319;52.944;5.928;2023-05-29T11:38:41;20.90;68.00
53422;DHT22;39319;52.944;5.928;2023-05-29T11:41:07;21.00;66.80
53422;DHT22;39319;52.944;5.928;2023-05-29T11:43:34;20.90;67.50
53422;DHT22;39319;52.944;5.928;2023-05-29T11:46:00;21.00;68.50
53422;DHT22;39319;52.944;5.928;2023-05-29T11:48:26;21.10;68.10
53422;DHT22;39319;52.944;5.928;2023-05-29T11:50:52;21.20;67.90
53422;DHT22;39319;52.944;5.928;2023-05-29T11:53:18;21.30;67.90
53422;DHT22;39319;52.944;5.928;2023-05-29T11:55:44;21.30;66.70
53422;DHT22;39319;52.944;5.928;2023-05-29T11:58:10;21.20;66.60
53422;DHT22;39319;52.944;5.928;2023-05-29T12:00:38;21.30;67.00
53422;DHT22;39319;52.944;5.928;2023-05-29T12:03:05;21.40;66.90
53422;DHT22;39319;52.944;5.928;2023-05-29T12:08:10;21.60;66.40
53422;DHT22;39319;52.944;5.928;2023-05-29T12:10:36;21.50;65.60
53422;DHT22;39319;52.944;5.928;2023-05-29T12:13:01;21.60;65.30
53422;DHT22;39319;52.944;5.928;2023-05-29T12:15:27;21.70;66.10
53422;DHT22;39319;52.944;5.928;2023-05-29T12:17:54;21.80;66.40
53422;DHT22;39319;52.944;5.928;2023-05-29T12:20:23;21.80;64.20
53422;DHT22;39319;52.944;5.928;2023-05-29T12:22:49;21.90;65.70
53422;DHT22;39319;52.944;5.928;2023-05-29T12:25:21;21.90;65.60
53422;DHT22;39319;52.944;5.928;2023-05-29T12:27:48;22.00;65.60
53422;DHT22;39319;52.944;5.928;2023-05-29T12:32:46;22.00;64.40
53422;DHT22;39319;52.944;5.928;2023-05-29T12:35:25;21.80;64.50
53422;DHT22;39319;52.944;5.928;2023-05-29T12:38:05;21.70;64.90
53422;DHT22;39319;52.944;5.928;2023-05-29T12:40:34;21.70;64.70
53422;DHT22;39319;52.944;5.928;2023-05-29T12:43:04;21.80;64.70
53422;DHT22;39319;52.944;5.928;2023-05-29T12:45:33;21.90;64.70
53422;DHT22;39319;52.944;5.928;2023-05-29T12:48:04;21.90;63.60
53422;DHT22;39319;52.944;5.928;2023-05-29T12:50:40;21.90;64.70
53422;DHT22;39319;52.944;5.928;2023-05-29T12:53:09;22.00;65.40
53422;DHT22;39319;52.944;5.928;2023-05-29T12:55:38;22.20;64.40
53422;DHT22;39319;52.944;5.928;2023-05-29T13:00:34;22.20;63.80
53422;DHT22;39319;52.944;5.928;2023-05-29T13:03:00;22.10;63.90
53422;DHT22;39319;52.944;5.928;2023-05-29T13:05:27;22.10;64.00
53422;DHT22;39319;52.944;5.928;2023-05-29T13:07:53;22.20;64.60
53422;DHT22;39319;52.944;5.928;2023-05-29T13:10:20;22.30;63.40
53422;DHT22;39319;52.944;5.928;2023-05-29T13:12:46;22.40;63.40
53422;DHT22;39319;52.944;5.928;2023-05-29T13:15:13;22.50;64.30
53422;DHT22;39319;52.944;5.928;2023-05-29T13:17:42;22.60;63.10
53422;DHT22;39319;52.944;5.928;2023-05-29T13:20:09;22.60;64.70
53422;DHT22;39319;52.944;5.928;2023-05-29T13:22:36;22.50;64.40
53422;DHT22;39319;52.944;5.928;2023-05-29T13:25:02;22.50;64.40
53422;DHT22;39319;52.944;5.928;2023-05-29T13:27:29;22.50;63.20
53422;DHT22;39319;52.944;5.928;2023-05-29T13:29:55;22.40;63.40
53422;DHT22;39319;52.944;5.928;2023-05-29T13:32:21;22.40;64.50
53422;DHT22;39319;52.944;5.928;2023-05-29T13:34:46;22.40;63.50
53422;DHT22;39319;52.944;5.928;2023-05-29T13:37:12;22.40;63.60
53422;DHT22;39319;52.944;5.928;2023-05-29T13:39:38;22.30;64.00
53422;DHT22;39319;52.944;5.928;2023-05-29T13:42:03;22.20;62.70
53422;DHT22;39319;52.944;5.928;2023-05-29T13:44:30;22.20;62.80
53422;DHT22;39319;52.944;5.928;2023-05-29T13:46:56;22.10;62.10
53422;DHT22;39319;52.944;5.928;2023-05-29T13:49:21;22.00;62.30
53422;DHT22;39319;52.944;5.928;2023-05-29T13:51:47;22.00;63.50
53422;DHT22;39319;52.944;5.928;2023-05-29T13:54:15;22.10;63.20
53422;DHT22;39319;52.944;5.928;2023-05-29T13:56:42;22.20;61.60
53422;DHT22;39319;52.944;5.928;2023-05-29T13:59:07;22.30;61.40
53422;DHT22;39319;52.944;5.928;2023-05-29T14:01:33;22.40;62.00
53422;DHT22;39319;52.944;5.928;2023-05-29T14:03:59;22.40;62.30
53422;DHT22;39319;52.944;5.928;2023-05-29T14:06:26;22.40;61.70
53422;DHT22;39319;52.944;5.928;2023-05-29T14:08:52;22.30;61.00
53422;DHT22;39319;52.944;5.928;2023-05-29T14:11:18;22.30;61.80
53422;DHT22;39319;52.944;5.928;2023-05-29T14:13:44;22.30;62.10
53422;DHT22;39319;52.944;5.928;2023-05-29T14:16:10;22.30;61.30
53422;DHT22;39319;52.944;5.928;2023-05-29T14:18:36;22.30;60.80
53422;DHT22;39319;52.944;5.928;2023-05-29T14:21:02;22.30;60.80
53422;DHT22;39319;52.944;5.928;2023-05-29T14:23:27;22.30;61.10
53422;DHT22;39319;52.944;5.928;2023-05-29T14:25:53;22.40;60.90
53422;DHT22;39319;52.944;5.928;2023-05-29T14:28:19;22.40;61.50
53422;DHT22;39319;52.944;5.928;2023-05-29T14:30:45;22.40;60.70
53422;DHT22;39319;52.944;5.928;2023-05-29T14:33:10;22.50;60.00
53422;DHT22;39319;52.944;5.928;2023-05-29T14:35:36;22.60;61.20
53422;DHT22;39319;52.944;5.928;2023-05-29T14:38:02;22.60;59.70
53422;DHT22;39319;52.944;5.928;2023-05-29T14:40:27;22.60;61.10
53422;DHT22;39319;52.944;5.928;2023-05-29T14:42:54;22.60;61.20
53422;DHT22;39319;52.944;5.928;2023-05-29T14:45:19;22.70;61.10
53422;DHT22;39319;52.944;5.928;2023-05-29T14:47:47;22.70;60.20
53422;DHT22;39319;52.944;5.928;2023-05-29T14:50:13;22.70;61.20
53422;DHT22;39319;52.944;5.928;2023-05-29T14:52:40;22.80;61.10
53422;DHT22;39319;52.944;5.928;2023-05-29T14:55:06;22.90;60.40
53422;DHT22;39319;52.944;5.928;2023-05-29T14:57:32;22.80;59.00
53422;DHT22;39319;52.944;5.928;2023-05-29T15:00:00;22.80;60.00
53422;DHT22;39319;52.944;5.928;2023-05-29T15:02:26;22.90;60.50
53422;DHT22;39319;52.944;5.928;2023-05-29T15:04:52;22.90;59.30
53422;DHT22;39319;52.944;5.928;2023-05-29T15:07:18;22.90;59.00
53422;DHT22;39319;52.944;5.928;2023-05-29T15:09:43;22.80;58.30
53422;DHT22;39319;52.944;5.928;2023-05-29T15:12:09;22.80;57.90
53422;DHT22;39319;52.944;5.928;2023-05-29T15:14:35;22.70;58.00
53422;DHT22;39319;52.944;5.928;2023-05-29T15:17:03;22.70;58.30
53422;DHT22;39319;52.944;5.928;2023-05-29T15:19:29;22.60;57.40
53422;DHT22;39319;52.944;5.928;2023-05-29T15:21:56;22.50;58.30
53422;DHT22;39319;52.944;5.928;2023-05-29T15:24:21;22.10;57.20
53422;DHT22;39319;52.944;5.928;2023-05-29T15:26:47;22.30;57.50
53422;DHT22;39319;52.944;5.928;2023-05-29T15:29:13;22.30;57.30
53422;DHT22;39319;52.944;5.928;2023-05-29T15:31:39;22.20;57.30
53422;DHT22;39319;52.944;5.928;2023-05-29T15:34:05;22.20;58.10
53422;DHT22;39319;52.944;5.928;2023-05-29T15:36:31;22.10;57.20
53422;DHT22;39319;52.944;5.928;2023-05-29T15:38:56;22.00;55.80
53422;DHT22;39319;52.944;5.928;2023-05-29T15:41:22;22.00;56.10
53422;DHT22;39319;52.944;5.928;2023-05-29T15:43:57;21.80;55.60
53422;DHT22;39319;52.944;5.928;2023-05-29T15:46:27;21.70;56.10
53422;DHT22;39319;52.944;5.928;2023-05-29T15:48:54;21.60;56.90
53422;DHT22;39319;52.944;5.928;2023-05-29T15:51:20;21.50;57.80
53422;DHT22;39319;52.944;5.928;2023-05-29T15:53:45;21.50;57.50
53422;DHT22;39319;52.944;5.928;2023-05-29T15:56:11;21.50;56.70
53422;DHT22;39319;52.944;5.928;2023-05-29T15:58:37;21.40;55.80
53422;DHT22;39319;52.944;5.928;2023-05-29T16:01:03;21.40;57.80
53422;DHT22;39319;52.944;5.928;2023-05-29T16:03:29;21.40;56.80
53422;DHT22;39319;52.944;5.928;2023-05-29T16:05:55;21.30;56.10
53422;DHT22;39319;52.944;5.928;2023-05-29T16:08:21;21.20;55.10
53422;DHT22;39319;52.944;5.928;2023-05-29T16:10:46;21.10;56.10